createdAt,value
2023-02-03T00:02:22.217Z,2.27
2023-02-03T00:04:53.944Z,2.20
2023-02-03T00:07:25.832Z,1.60
2023-02-03T00:09:58.048Z,1.90
2023-02-03T00:12:29.805Z,2.07
2023-02-03T00:15:01.510Z,1.90
2023-02-03T00:17:33.232Z,1.70
2023-02-03T00:20:05.383Z,1.30
2023-02-03T00:22:37.249Z,1.80
2023-02-03T00:25:09.187Z,1.93
2023-02-03T00:27:40.956Z,1.80
2023-02-03T00:30:13.381Z,1.60
2023-02-03T00:32:45.141Z,1.93
2023-02-03T00:35:16.884Z,1.70
2023-02-03T00:37:56.042Z,1.70
2023-02-03T00:40:29.878Z,1.70
2023-02-03T00:43:01.598Z,1.70
2023-02-03T00:45:33.464Z,2.00
2023-02-03T00:48:06.155Z,2.27
2023-02-03T00:50:37.878Z,1.57
2023-02-03T00:53:09.650Z,1.73
2023-02-03T00:55:43.514Z,1.70
2023-02-03T00:58:15.252Z,2.13
2023-02-03T01:00:46.999Z,1.70
2023-02-03T01:03:18.713Z,1.67
2023-02-03T01:05:50.390Z,1.90
2023-02-03T01:08:23.727Z,1.60
2023-02-03T01:10:55.496Z,1.80
2023-02-03T01:13:27.772Z,1.50
2023-02-03T01:15:59.459Z,2.07
2023-02-03T01:18:31.192Z,1.77
2023-02-03T01:21:11.667Z,2.40
2023-02-03T01:23:43.800Z,2.20
2023-02-03T01:26:18.536Z,1.90
2023-02-03T01:28:55.377Z,2.00
2023-02-03T01:31:35.347Z,3.10
2023-02-03T01:34:10.945Z,2.20
2023-02-03T01:36:42.714Z,2.27
2023-02-03T01:39:14.543Z,2.50
2023-02-03T01:41:46.394Z,2.70
2023-02-03T01:44:44.370Z,2.50
2023-02-03T01:47:24.557Z,2.60
2023-02-03T01:49:59.226Z,2.40
2023-02-03T01:52:32.448Z,2.67
2023-02-03T01:55:07.973Z,2.47
2023-02-03T01:58:08.496Z,3.40
2023-02-03T02:00:41.861Z,2.87
2023-02-03T02:03:14.565Z,2.83
2023-02-03T02:05:53.302Z,2.47
2023-02-03T02:08:25.240Z,2.20
2023-02-03T02:10:59.187Z,2.80
2023-02-03T02:13:35.018Z,2.20
2023-02-03T02:16:11.947Z,2.80
2023-02-03T02:19:24.707Z,2.20
2023-02-03T02:21:59.192Z,2.87
2023-02-03T02:24:56.849Z,2.27
2023-02-03T02:27:37.696Z,2.83
2023-02-03T02:30:30.364Z,2.70
2023-02-03T02:33:10.936Z,2.70
2023-02-03T02:36:02.442Z,2.50
2023-02-03T02:39:11.565Z,3.50
2023-02-03T02:42:04.913Z,2.83
2023-02-03T02:44:53.891Z,3.27
2023-02-03T02:47:25.630Z,2.20
2023-02-03T02:50:09.074Z,2.27
2023-02-03T02:52:44.372Z,2.53
2023-02-03T02:55:24.683Z,2.40
2023-02-03T02:58:03.969Z,3.30
2023-02-03T03:00:37.001Z,2.53
2023-02-03T03:03:20.790Z,2.15
2023-02-03T03:06:02.081Z,2.87
2023-02-03T03:09:02.879Z,2.17
2023-02-03T03:11:42.927Z,2.30
2023-02-03T03:14:17.362Z,2.30
2023-02-03T03:17:00.870Z,2.73
2023-02-03T03:19:44.833Z,1.93
2023-02-03T03:22:18.858Z,2.70
2023-02-03T03:25:01.287Z,2.80
2023-02-03T03:27:38.165Z,3.10
2023-02-03T03:30:15.013Z,2.93
2023-02-03T03:32:46.905Z,2.87
2023-02-03T03:35:19.595Z,2.80
2023-02-03T03:38:02.667Z,3.50
2023-02-03T03:40:41.393Z,2.63
2023-02-03T03:43:20.555Z,2.90
2023-02-03T03:46:00.792Z,2.30
2023-02-03T03:48:57.870Z,2.53
2023-02-03T03:52:01.128Z,3.27
2023-02-03T03:54:36.273Z,2.57
2023-02-03T03:57:28.538Z,1.90
2023-02-03T04:00:02.465Z,2.40
2023-02-03T04:02:36.686Z,2.00
2023-02-03T04:05:10.740Z,2.47
2023-02-03T04:07:45.351Z,2.47
2023-02-03T04:10:27.723Z,1.93
2023-02-03T04:12:59.966Z,2.30
2023-02-03T04:15:32.528Z,2.33
2023-02-03T04:18:05.146Z,2.20
2023-02-03T04:20:36.856Z,2.00
2023-02-03T04:23:09.124Z,1.73
2023-02-03T04:25:40.932Z,2.20
2023-02-03T04:28:12.784Z,2.13
2023-02-03T04:30:44.529Z,2.67
2023-02-03T04:33:16.224Z,2.30
2023-02-03T04:35:47.925Z,1.90
2023-02-03T04:38:19.601Z,2.77
2023-02-03T04:40:51.319Z,2.40
2023-02-03T04:43:23.069Z,2.30
2023-02-03T04:45:54.915Z,1.90
2023-02-03T04:48:26.958Z,2.53
2023-02-03T04:51:03.396Z,2.00
2023-02-03T04:53:35.513Z,1.80
2023-02-03T04:56:07.440Z,2.40
2023-02-03T04:58:39.234Z,1.67
2023-02-03T05:01:11.152Z,1.80
2023-02-03T05:03:42.878Z,2.30
2023-02-03T05:06:14.594Z,2.03
2023-02-03T05:08:46.271Z,1.87
2023-02-03T05:11:18.057Z,1.87
2023-02-03T05:13:49.936Z,1.80
2023-02-03T05:16:21.773Z,1.97
2023-02-03T05:18:53.725Z,2.03
2023-02-03T05:21:25.408Z,2.00
2023-02-03T05:23:57.133Z,2.00
2023-02-03T05:26:28.941Z,1.90
2023-02-03T05:29:00.999Z,1.83
2023-02-03T05:31:33.612Z,1.90
2023-02-03T05:34:05.552Z,2.40
2023-02-03T05:36:37.291Z,2.33
2023-02-03T05:39:09.150Z,2.27
2023-02-03T05:41:52.690Z,1.87
2023-02-03T05:44:26.842Z,2.07
2023-02-03T05:46:59.807Z,2.17
2023-02-03T05:49:31.526Z,2.20
2023-02-03T05:52:03.455Z,2.20
2023-02-03T05:54:35.121Z,2.23
2023-02-03T05:57:06.834Z,2.50
2023-02-03T05:59:38.499Z,1.90
2023-02-03T06:02:10.195Z,2.10
2023-02-03T06:04:41.914Z,1.80
2023-02-03T06:07:13.597Z,2.93
2023-02-03T06:09:45.364Z,2.20
2023-02-03T06:12:17.100Z,2.13
2023-02-03T06:14:48.838Z,2.73
2023-02-03T06:17:20.537Z,2.30
2023-02-03T06:19:52.219Z,2.60
2023-02-03T06:22:24.139Z,2.97
2023-02-03T06:24:55.859Z,3.63
2023-02-03T06:27:27.699Z,3.13
2023-02-03T06:29:59.636Z,2.50
2023-02-03T06:32:31.371Z,2.33
2023-02-03T06:35:03.193Z,2.57
2023-02-03T06:37:35.746Z,3.00
2023-02-03T06:40:07.869Z,2.57
2023-02-03T06:42:39.585Z,2.23
2023-02-03T06:45:11.312Z,2.90
2023-02-03T06:47:44.310Z,2.60
2023-02-03T06:50:16.489Z,2.50
2023-02-03T06:52:50.247Z,2.83
2023-02-03T06:55:21.947Z,2.57
2023-02-03T06:57:53.763Z,2.07
2023-02-03T07:00:25.571Z,2.60
2023-02-03T07:02:59.563Z,2.27
2023-02-03T07:05:31.341Z,1.80
2023-02-03T07:08:03.098Z,2.27
2023-02-03T07:10:34.832Z,2.63
2023-02-03T07:13:07.318Z,2.10
2023-02-03T07:15:39.333Z,2.60
2023-02-03T07:18:11.854Z,2.63
2023-02-03T07:20:44.821Z,2.33
2023-02-03T07:23:16.653Z,2.57
2023-02-03T07:25:48.309Z,2.90
2023-02-03T07:28:20.058Z,3.07
2023-02-03T07:30:52.025Z,3.13
2023-02-03T07:33:24.226Z,3.03
2023-02-03T07:35:58.804Z,2.80
2023-02-03T07:38:30.681Z,3.40
2023-02-03T07:41:02.391Z,3.83
2023-02-03T07:43:34.351Z,3.70
2023-02-03T07:46:06.198Z,2.90
2023-02-03T07:48:37.979Z,3.57
2023-02-03T07:51:09.723Z,4.60
2023-02-03T07:53:41.417Z,3.67
2023-02-03T07:56:13.171Z,4.00
2023-02-03T07:58:44.838Z,4.20
2023-02-03T08:01:17.040Z,4.67
2023-02-03T08:03:48.706Z,4.28
2023-02-03T08:06:20.485Z,4.90
2023-02-03T08:08:54.063Z,4.93
2023-02-03T08:11:25.828Z,4.80
2023-02-03T08:13:57.616Z,4.33
2023-02-03T08:16:29.415Z,4.13
2023-02-03T08:19:01.186Z,5.50
2023-02-03T08:21:32.861Z,4.40
2023-02-03T08:24:05.051Z,4.50
2023-02-03T08:26:37.631Z,3.95
2023-02-03T08:29:09.389Z,4.93
2023-02-03T08:31:42.653Z,4.30
2023-02-03T08:34:14.464Z,4.10
2023-02-03T08:36:46.236Z,4.63
2023-02-03T08:39:17.959Z,4.13
2023-02-03T08:41:49.659Z,3.70
2023-02-03T08:44:21.653Z,3.33
2023-02-03T08:46:53.838Z,4.23
2023-02-03T08:49:27.675Z,3.77
2023-02-03T08:51:59.714Z,3.90
2023-02-03T08:54:32.099Z,3.73
2023-02-03T08:57:04.120Z,3.40
2023-02-03T08:59:38.920Z,4.45
2023-02-03T09:02:15.261Z,3.73
2023-02-03T09:04:47.547Z,3.63
2023-02-03T09:07:19.284Z,3.47
2023-02-03T09:09:51.040Z,4.80
2023-02-03T09:12:22.819Z,4.10
2023-02-03T09:14:54.504Z,4.03
2023-02-03T09:17:26.296Z,2.70
2023-02-03T09:19:58.062Z,3.63
2023-02-03T09:22:29.807Z,4.13
2023-02-03T09:25:01.548Z,3.00
2023-02-03T09:27:33.472Z,2.80
2023-02-03T09:30:05.744Z,3.40
2023-02-03T09:32:37.564Z,5.13
2023-02-03T09:35:09.579Z,3.17
2023-02-03T09:37:41.240Z,3.27
2023-02-03T09:40:35.087Z,3.53
2023-02-03T09:43:18.021Z,2.70
2023-02-03T09:45:50.554Z,3.50
2023-02-03T09:48:29.211Z,3.43
2023-02-03T09:51:01.680Z,2.77
2023-02-03T09:53:45.703Z,3.00
2023-02-03T09:56:36.857Z,3.10
2023-02-03T09:59:10.077Z,3.77
2023-02-03T10:02:09.745Z,3.17
2023-02-03T10:05:04.571Z,2.47
2023-02-03T10:07:58.094Z,2.70
2023-02-03T10:11:12.282Z,2.80
2023-02-03T10:14:11.768Z,4.90
2023-02-03T10:17:08.442Z,3.73
2023-02-03T10:20:11.819Z,2.77
2023-02-03T10:22:48.631Z,1.73
2023-02-03T10:25:31.404Z,2.77
2023-02-03T10:28:10.132Z,3.00
2023-02-03T10:30:47.506Z,2.00
2023-02-03T10:33:19.863Z,3.23
2023-02-03T10:36:12.851Z,2.27
2023-02-03T10:39:06.410Z,2.40
2023-02-03T10:41:38.171Z,2.40
2023-02-03T10:44:14.087Z,2.20
2023-02-03T10:46:45.882Z,3.45
2023-02-03T10:49:19.137Z,7.00
2023-02-03T10:51:53.092Z,2.53
2023-02-03T10:54:33.788Z,3.07
2023-02-03T10:57:12.374Z,3.57
2023-02-03T10:59:46.657Z,3.03
2023-02-03T11:02:29.391Z,2.97
2023-02-03T11:05:21.967Z,2.00
2023-02-03T11:07:54.779Z,2.23
2023-02-03T11:10:40.834Z,1.70
2023-02-03T11:13:15.528Z,1.73
2023-02-03T11:16:05.806Z,1.70
2023-02-03T11:18:52.568Z,1.77
2023-02-03T11:21:37.667Z,1.90
2023-02-03T11:24:28.328Z,1.60
2023-02-03T11:27:16.131Z,1.83
2023-02-03T11:29:51.472Z,1.37
2023-02-03T11:32:43.139Z,1.20
2023-02-03T11:35:29.525Z,1.63
2023-02-03T11:38:03.147Z,1.00
2023-02-03T11:40:38.392Z,1.20
2023-02-03T11:43:17.987Z,0.80
2023-02-03T11:45:52.836Z,1.67
2023-02-03T11:48:47.580Z,0.90
2023-02-03T11:51:30.546Z,1.10
2023-02-03T11:54:16.943Z,1.37
2023-02-03T11:57:12.884Z,1.20
2023-02-03T11:59:47.634Z,1.00
2023-02-03T12:02:31.352Z,1.30
2023-02-03T12:05:21.530Z,1.20
2023-02-03T12:08:02.278Z,1.87
2023-02-03T12:10:42.634Z,1.37
2023-02-03T12:13:47.292Z,1.57
2023-02-03T12:16:28.832Z,1.40
2023-02-03T12:19:32.728Z,1.33
2023-02-03T12:22:28.694Z,1.30
2023-02-03T12:25:21.973Z,1.20
2023-02-03T12:28:10.625Z,1.20
2023-02-03T12:30:57.118Z,1.40
2023-02-03T12:33:40.802Z,1.53
2023-02-03T12:36:20.422Z,1.47
2023-02-03T12:39:05.196Z,1.63
2023-02-03T12:41:42.904Z,2.17
2023-02-03T12:44:45.682Z,1.37
2023-02-03T12:47:41.640Z,1.20
2023-02-03T12:50:40.591Z,1.30
2023-02-03T12:53:20.887Z,1.60
2023-02-03T12:56:05.251Z,1.47
2023-02-03T12:58:39.182Z,1.20
2023-02-03T13:01:24.147Z,1.50
2023-02-03T13:04:12.870Z,1.60
2023-02-03T13:07:12.938Z,1.60
2023-02-03T13:10:03.806Z,1.40
2023-02-03T13:12:44.165Z,1.77
2023-02-03T13:15:18.917Z,1.37
2023-02-03T13:18:19.285Z,1.60
2023-02-03T13:20:51.031Z,1.27
2023-02-03T13:23:23.984Z,1.60
2023-02-03T13:26:14.730Z,1.43
2023-02-03T13:29:27.308Z,1.90
2023-02-03T13:32:21.998Z,1.10
2023-02-03T13:35:21.565Z,1.30
2023-02-03T13:37:59.305Z,1.80
2023-02-03T13:40:31.325Z,1.80
2023-02-03T13:43:06.508Z,1.70
2023-02-03T13:45:46.900Z,1.67
2023-02-03T13:48:27.047Z,1.83
2023-02-03T13:51:14.636Z,1.60
2023-02-03T13:53:48.659Z,1.20
2023-02-03T13:56:23.798Z,1.30
2023-02-03T13:59:15.639Z,1.10
2023-02-03T14:01:47.344Z,1.47
2023-02-03T14:04:22.150Z,1.23
2023-02-03T14:06:53.823Z,1.37
2023-02-03T14:09:31.628Z,1.67
2023-02-03T14:12:15.500Z,1.70
2023-02-03T14:14:50.208Z,1.40
2023-02-03T14:17:40.791Z,1.93
2023-02-03T14:20:27.881Z,1.20
2023-02-03T14:23:05.656Z,2.20
2023-02-03T14:25:47.160Z,1.40
2023-02-03T14:28:22.935Z,1.13
2023-02-03T14:31:21.712Z,1.70
2023-02-03T14:34:06.019Z,1.17
2023-02-03T14:36:42.672Z,1.60
2023-02-03T14:39:20.228Z,1.30
2023-02-03T14:42:04.284Z,1.93
2023-02-03T14:45:00.101Z,1.30
2023-02-03T14:47:34.845Z,1.00
2023-02-03T14:50:34.047Z,1.50
2023-02-03T14:53:08.540Z,1.53
2023-02-03T14:55:54.743Z,1.60
2023-02-03T14:58:36.003Z,2.30
2023-02-03T15:01:08.408Z,2.37
2023-02-03T15:03:42.222Z,1.57
2023-02-03T15:06:44.073Z,1.60
2023-02-03T15:09:47.378Z,1.30
2023-02-03T15:12:23.997Z,1.43
2023-02-03T15:15:29.325Z,1.57
2023-02-03T15:18:27.896Z,1.50
2023-02-03T15:20:59.726Z,1.73
2023-02-03T15:23:43.244Z,1.40
2023-02-03T15:26:24.566Z,1.90
2023-02-03T15:28:58.208Z,1.67
2023-02-03T15:31:48.958Z,1.60
2023-02-03T15:34:27.857Z,1.30
2023-02-03T15:37:06.999Z,1.20
2023-02-03T15:40:00.453Z,1.80
2023-02-03T15:42:57.865Z,1.17
2023-02-03T15:45:45.932Z,1.70
2023-02-03T15:48:40.704Z,1.87
2023-02-03T15:51:18.740Z,1.50
2023-02-03T15:53:58.735Z,1.47
2023-02-03T15:56:40.862Z,2.03
2023-02-03T15:59:26.338Z,1.50
2023-02-03T16:02:00.948Z,1.63
2023-02-03T16:04:33.159Z,1.73
2023-02-03T16:07:04.979Z,1.70
2023-02-03T16:09:41.162Z,1.30
2023-02-03T16:12:24.415Z,1.50
2023-02-03T16:14:58.090Z,1.40
2023-02-03T16:17:33.843Z,1.20
2023-02-03T16:20:11.439Z,1.50
2023-02-03T16:22:59.228Z,1.50
2023-02-03T16:25:33.637Z,1.50
2023-02-03T16:28:32.325Z,1.40
2023-02-03T16:31:38.755Z,4.30
2023-02-03T16:34:35.258Z,1.50
2023-02-03T16:37:43.295Z,1.60
2023-02-03T16:40:40.757Z,1.60
2023-02-03T16:43:33.103Z,1.93
2023-02-03T16:46:30.506Z,1.90
2023-02-03T16:49:21.105Z,1.83
2023-02-03T16:51:52.768Z,1.43
2023-02-03T16:54:24.509Z,2.13
2023-02-03T16:56:58.498Z,2.10
2023-02-03T16:59:30.476Z,2.23
2023-02-03T17:02:02.207Z,2.00
2023-02-03T17:04:33.921Z,2.33
2023-02-03T17:07:05.613Z,2.10
2023-02-03T17:09:37.327Z,1.63
2023-02-03T17:12:09.131Z,2.10
2023-02-03T17:14:40.829Z,2.00
2023-02-03T17:17:12.503Z,1.40
2023-02-03T17:19:44.225Z,1.90
2023-02-03T17:22:16.080Z,1.73
2023-02-03T17:24:47.773Z,2.10
2023-02-03T17:27:19.778Z,1.70
2023-02-03T17:29:51.532Z,2.70
2023-02-03T17:32:23.323Z,3.17
2023-02-03T17:34:55.067Z,2.17
2023-02-03T17:37:26.787Z,2.00
2023-02-03T17:54:16.600Z,2.50
2023-02-03T17:56:49.331Z,1.87
2023-02-03T17:59:21.225Z,1.60
2023-02-03T18:01:53.372Z,2.10
2023-02-03T18:04:25.117Z,2.30
2023-02-03T18:06:56.965Z,1.57
2023-02-03T18:09:28.761Z,2.00
2023-02-03T18:12:00.449Z,2.43
2023-02-03T18:14:32.755Z,3.10
2023-02-03T18:17:04.412Z,1.53
2023-02-03T18:19:36.066Z,2.23
2023-02-03T18:22:08.022Z,1.33
2023-02-03T18:24:39.897Z,2.20
2023-02-03T18:27:16.755Z,2.30
2023-02-03T18:29:48.616Z,3.07
2023-02-03T18:32:20.564Z,2.10
2023-02-03T18:34:52.206Z,2.40
2023-02-03T18:37:23.905Z,2.80
2023-02-03T18:39:55.621Z,3.13
2023-02-03T18:42:27.346Z,3.10
2023-02-03T18:44:59.093Z,5.03
2023-02-03T18:47:30.796Z,2.40
2023-02-03T18:50:02.565Z,1.97
2023-02-03T18:52:34.260Z,1.83
2023-02-03T18:55:06.378Z,2.00
2023-02-03T18:57:38.384Z,1.60
2023-02-03T19:00:10.952Z,2.00
2023-02-03T19:02:42.683Z,2.00
2023-02-03T19:05:14.480Z,1.90
2023-02-03T19:07:46.230Z,2.00
2023-02-03T19:10:18.175Z,2.30
2023-02-03T19:12:49.933Z,3.47
2023-02-03T19:15:21.637Z,2.70
2023-02-03T19:17:53.368Z,2.33
2023-02-03T19:20:25.085Z,2.77
2023-02-03T19:22:56.847Z,2.10
2023-02-03T19:25:28.534Z,2.40
2023-02-03T19:28:00.233Z,2.20
2023-02-03T19:30:32.773Z,2.03
2023-02-03T19:33:04.613Z,2.13
2023-02-03T19:35:36.741Z,2.00
2023-02-03T19:38:08.822Z,2.30
2023-02-03T19:40:40.528Z,3.83
2023-02-03T19:43:12.399Z,2.37
2023-02-03T19:45:44.109Z,3.27
2023-02-03T19:48:15.783Z,1.90
2023-02-03T19:50:48.558Z,1.97
2023-02-03T19:53:21.533Z,1.57
2023-02-03T19:55:53.231Z,2.07
2023-02-03T19:58:25.308Z,2.00
2023-02-03T20:00:57.245Z,2.13
2023-02-03T20:03:29.013Z,2.50
2023-02-03T20:06:01.235Z,2.33
2023-02-03T20:08:33.051Z,3.70
2023-02-03T20:11:04.901Z,3.13
2023-02-03T20:13:36.727Z,3.13
2023-02-03T20:16:08.473Z,3.03
2023-02-03T20:18:40.339Z,2.80
2023-02-03T20:21:14.150Z,2.43
2023-02-03T20:23:45.845Z,1.83
2023-02-03T20:26:17.488Z,2.30
2023-02-03T20:28:49.260Z,1.97
2023-02-03T20:31:21.402Z,2.60
2023-02-03T20:33:53.359Z,1.60
2023-02-03T20:36:25.172Z,1.60
2023-02-03T20:38:57.133Z,1.83
2023-02-03T20:41:29.183Z,1.60
2023-02-03T20:44:02.054Z,1.73
2023-02-03T20:46:33.782Z,1.40
2023-02-03T20:49:10.534Z,1.63
2023-02-03T20:51:42.385Z,1.13
2023-02-03T20:54:21.780Z,1.40
2023-02-03T20:56:53.479Z,1.93
2023-02-03T20:59:25.188Z,1.37
2023-02-03T21:01:56.905Z,2.10
2023-02-03T21:04:47.009Z,3.93
2023-02-03T21:07:19.059Z,1.50
2023-02-03T21:09:50.793Z,1.63
2023-02-03T21:12:22.608Z,1.23
2023-02-03T21:14:55.190Z,0.95
2023-02-03T21:17:27.379Z,1.63
2023-02-03T21:19:59.030Z,1.33
2023-02-03T21:22:32.163Z,1.60
2023-02-03T21:25:04.035Z,1.50
2023-02-03T21:27:35.887Z,1.30
2023-02-03T21:30:28.423Z,1.20
2023-02-03T21:33:06.164Z,1.00
2023-02-03T21:35:37.891Z,1.40
2023-02-03T21:38:32.405Z,1.90
2023-02-03T21:41:16.066Z,1.20
2023-02-03T21:43:54.507Z,1.20
2023-02-03T21:46:32.747Z,1.20
2023-02-03T21:49:04.737Z,1.23
2023-02-03T21:51:39.153Z,1.40
2023-02-03T21:54:33.531Z,1.47
2023-02-03T21:57:05.379Z,1.50
2023-02-03T21:59:46.981Z,1.63
2023-02-03T22:02:33.483Z,2.23
2023-02-03T22:05:05.328Z,2.20
2023-02-03T22:07:37.012Z,1.83
2023-02-03T22:10:09.202Z,2.70
2023-02-03T22:12:40.876Z,3.20
2023-02-03T22:15:12.660Z,2.83
2023-02-03T22:17:48.172Z,3.17
2023-02-03T22:20:20.009Z,3.80
2023-02-03T22:22:51.705Z,3.73
2023-02-03T22:25:23.572Z,4.17
2023-02-03T22:27:55.290Z,4.20
2023-02-03T22:30:27.069Z,5.80
2023-02-03T22:32:59.353Z,3.80
2023-02-03T22:35:31.362Z,4.70
2023-02-03T22:38:03.139Z,4.77
2023-02-03T22:40:34.937Z,4.60
2023-02-03T22:43:06.721Z,4.73
2023-02-03T22:45:38.540Z,4.73
2023-02-03T22:48:10.315Z,4.40
2023-02-03T22:50:42.292Z,4.73
2023-02-03T22:53:14.697Z,4.85
2023-02-03T22:55:46.374Z,5.10
2023-02-03T22:58:18.147Z,5.73
2023-02-03T23:00:49.826Z,5.77
2023-02-03T23:03:21.707Z,5.03
2023-02-03T23:05:53.416Z,4.77
2023-02-03T23:08:25.128Z,4.80
2023-02-03T23:10:56.947Z,4.60
2023-02-03T23:13:28.823Z,4.93
2023-02-03T23:16:00.596Z,5.90
2023-02-03T23:18:32.284Z,5.07
2023-02-03T23:21:04.043Z,4.47
2023-02-03T23:23:35.754Z,6.00
2023-02-03T23:26:07.478Z,5.80
2023-02-03T23:28:39.196Z,5.40
2023-02-03T23:31:11.046Z,5.23
2023-02-03T23:34:02.977Z,5.07
2023-02-03T23:36:34.814Z,4.60
2023-02-03T23:39:06.906Z,5.10
2023-02-03T23:41:38.637Z,4.77
2023-02-03T23:44:11.000Z,5.47
2023-02-03T23:46:42.968Z,6.43
2023-02-03T23:49:14.822Z,4.90
2023-02-03T23:51:46.480Z,5.40
2023-02-03T23:54:18.213Z,4.87
2023-02-03T23:56:50.047Z,5.90
2023-02-03T23:59:21.824Z,4.10
